Time,TemperatureF,DewpointF,PressureIn,WindDirection,WindDirectionDegrees,WindSpeedMPH,WindSpeedGustMPH,Humidity,HourlyPrecipIn,Conditions,Clouds,dailyrainin,SoftwareType,DateUTC
2013-09-06 00:00:00,68.4,49.6,30.10,SW,225,0.0,0.4,51,0.00,,,0.00,WUHU216HW,2013-09-06 04:00:00,
2013-09-06 00:01:00,68.4,49.6,30.10,SW,225,0.0,0.4,51,0.00,,,0.00,WUHU216HW,2013-09-06 04:01:00,
2013-09-06 00:02:00,68.4,49.6,30.10,SW,225,0.0,0.4,51,0.00,,,0.00,WUHU216HW,2013-09-06 04:02:00,
2013-09-06 00:07:00,68.4,49.6,30.10,SSE,158,0.0,0.4,51,0.00,,,0.00,WUHU216HW,2013-09-06 04:07:00,
2013-09-06 00:12:00,68.0,49.2,30.11,SSE,158,0.0,0.0,51,0.00,,,0.00,WUHU216HW,2013-09-06 04:12:00,
2013-09-06 00:17:00,67.7,49.4,30.11,ENE,68,0.0,0.0,52,0.00,,,0.00,WUHU216HW,2013-09-06 04:17:00,
2013-09-06 00:22:00,67.7,49.4,30.11,ENE,68,0.0,0.0,52,0.00,,,0.00,WUHU216HW,2013-09-06 04:22:00,
2013-09-06 00:46:00,65.9,49.2,30.12,ENE,68,0.0,0.0,55,0.00,,,0.00,WUHU216HW,2013-09-06 04:46:00,
2013-09-06 00:51:00,65.7,49.1,30.12,ENE,68,0.0,0.0,55,0.00,,,0.00,WUHU216HW,2013-09-06 04:51:00,
2013-09-06 00:56:00,65.5,49.3,30.12,ENE,68,0.0,0.0,56,0.00,,,0.00,WUHU216HW,2013-09-06 04:56:00,
2013-09-06 01:01:00,65.5,49.3,30.13,ENE,68,0.0,0.0,56,0.00,,,0.00,WUHU216HW,2013-09-06 05:01:00,
2013-09-06 01:06:00,65.3,49.1,30.13,ENE,68,0.0,0.0,56,0.00,,,0.00,WUHU216HW,2013-09-06 05:06:00,
2013-09-06 01:12:00,65.2,49.0,30.13,ENE,68,0.0,0.0,56,0.00,,,0.00,WUHU216HW,2013-09-06 05:12:00,
2013-09-06 01:17:00,64.8,49.2,30.13,ENE,68,0.0,0.0,57,0.00,,,0.00,WUHU216HW,2013-09-06 05:17:00,
2013-09-06 01:22:00,64.4,49.2,30.13,ENE,68,0.0,0.0,58,0.00,,,0.00,WUHU216HW,2013-09-06 05:22:00,
2013-09-06 01:27:00,64.4,49.2,30.13,ENE,68,0.0,0.0,58,0.00,,,0.00,WUHU216HW,2013-09-06 05:27:00,
2013-09-06 01:32:00,64.3,49.1,30.13,ENE,68,0.0,0.0,58,0.00,,,0.00,WUHU216HW,2013-09-06 05:32:00,
2013-09-06 01:37:00,64.1,49.4,30.13,ENE,68,0.0,0.0,59,0.00,,,0.00,WUHU216HW,2013-09-06 05:37:00,
2013-09-06 01:42:00,63.7,49.6,30.13,ENE,68,0.0,0.0,60,0.00,,,0.00,WUHU216HW,2013-09-06 05:42:00,
2013-09-06 01:47:00,63.7,49.6,30.13,ENE,68,0.0,0.0,60,0.00,,,0.00,WUHU216HW,2013-09-06 05:47:00,
2013-09-06 01:52:00,63.7,49.6,30.13,ENE,68,0.0,0.0,60,0.00,,,0.00,WUHU216HW,2013-09-06 05:52:00,
2013-09-06 01:57:00,63.5,49.4,30.13,ENE,68,0.0,0.0,60,0.00,,,0.00,WUHU216HW,2013-09-06 05:57:00,
2013-09-06 02:03:00,63.4,49.7,30.13,ENE,68,0.0,0.0,61,0.00,,,0.00,WUHU216HW,2013-09-06 06:03:00,
2013-09-06 02:08:00,63.2,49.5,30.13,ENE,68,0.0,0.0,61,0.00,,,0.00,WUHU216HW,2013-09-06 06:08:00,
2013-09-06 02:13:00,63.0,49.3,30.13,ENE,68,0.0,0.0,61,0.00,,,0.00,WUHU216HW,2013-09-06 06:13:00,
2013-09-06 02:18:00,63.0,49.3,30.14,ENE,68,0.0,0.0,61,0.00,,,0.00,WUHU216HW,2013-09-06 06:18:00,
2013-09-06 02:23:00,62.6,49.4,30.13,ENE,68,0.0,0.0,62,0.00,,,0.00,WUHU216HW,2013-09-06 06:23:00,
2013-09-06 02:28:00,62.6,49.4,30.13,ENE,68,0.0,0.0,62,0.00,,,0.00,WUHU216HW,2013-09-06 06:28:00,
2013-09-06 02:33:00,62.5,49.7,30.14,ENE,68,0.0,0.0,63,0.00,,,0.00,WUHU216HW,2013-09-06 06:33:00,
2013-09-06 02:38:00,62.3,49.5,30.14,ENE,68,0.0,0.0,63,0.00,,,0.00,WUHU216HW,2013-09-06 06:38:00,
2013-09-06 02:43:00,62.3,49.5,30.14,ENE,68,0.0,0.0,63,0.00,,,0.00,WUHU216HW,2013-09-06 06:43:00,
2013-09-06 02:48:00,62.3,49.5,30.14,ENE,68,0.0,0.0,63,0.00,,,0.00,WUHU216HW,2013-09-06 06:48:00,
2013-09-06 02:54:00,61.9,49.6,30.14,ENE,68,0.0,0.0,64,0.00,,,0.00,WUHU216HW,2013-09-06 06:54:00,
2013-09-06 02:59:00,61.9,49.6,30.14,ENE,68,0.0,0.0,64,0.00,,,0.00,WUHU216HW,2013-09-06 06:59:00,
2013-09-06 03:04:00,61.6,49.7,30.14,ENE,68,0.4,0.4,65,0.00,,,0.00,WUHU216HW,2013-09-06 07:04:00,
2013-09-06 03:09:00,61.6,49.7,30.14,SE,135,0.0,0.4,65,0.00,,,0.00,WUHU216HW,2013-09-06 07:09:00,
2013-09-06 03:14:00,61.7,49.9,30.14,SE,135,0.4,0.4,65,0.00,,,0.00,WUHU216HW,2013-09-06 07:14:00,
2013-09-06 03:19:00,61.9,50.4,30.15,SSE,158,2.5,2.5,66,0.00,,,0.00,WUHU216HW,2013-09-06 07:19:00,
2013-09-06 03:24:00,63.0,50.6,30.14,SSW,203,0.9,2.5,64,0.00,,,0.00,WUHU216HW,2013-09-06 07:24:00,
2013-09-06 03:29:00,63.4,50.5,30.15,SE,135,0.7,0.9,63,0.00,,,0.00,WUHU216HW,2013-09-06 07:29:00,
2013-09-06 03:34:00,63.7,50.4,30.15,SSW,203,2.5,2.5,62,0.00,,,0.00,WUHU216HW,2013-09-06 07:34:00,
2013-09-06 03:39:00,63.7,50.1,30.15,SSE,158,0.4,2.5,61,0.00,,,0.00,WUHU216HW,2013-09-06 07:39:00,
2013-09-06 03:44:00,63.7,50.1,30.15,SSE,158,2.5,2.5,61,0.00,,,0.00,WUHU216HW,2013-09-06 07:44:00,
2013-09-06 03:49:00,63.7,50.1,30.15,SSE,158,0.0,3.4,61,0.00,,,0.00,WUHU216HW,2013-09-06 07:49:00,
2013-09-06 03:55:00,63.7,50.1,30.15,WSW,248,2.2,3.4,61,0.00,,,0.00,WUHU216HW,2013-09-06 07:55:00,
2013-09-06 04:00:00,63.7,50.1,30.15,SW,225,2.0,2.2,61,0.00,,,0.00,WUHU216HW,2013-09-06 08:00:00,
2013-09-06 04:02:00,63.7,50.1,30.15,SW,225,2.0,2.0,61,0.00,,,0.00,WUHU216HW,2013-09-06 08:02:00,
2013-09-06 04:05:00,63.7,50.1,30.15,SW,225,2.0,2.2,61,0.00,,,0.00,WUHU216HW,2013-09-06 08:05:00,
2013-09-06 04:10:00,63.7,50.1,30.15,SW,225,2.0,2.0,61,0.00,,,0.00,WUHU216HW,2013-09-06 08:10:00,
2013-09-06 04:32:00,63.0,49.0,30.15,WSW,248,1.6,1.6,60,0.00,,,0.00,WUHU216HW,2013-09-06 08:32:00,
2013-09-06 04:37:00,63.0,49.0,30.15,South,180,1.3,1.6,60,0.00,,,0.00,WUHU216HW,2013-09-06 08:37:00,
2013-09-06 04:42:00,63.0,49.0,30.15,ENE,68,0.7,1.6,60,0.00,,,0.00,WUHU216HW,2013-09-06 08:42:00,
2013-09-06 04:47:00,63.0,49.0,30.15,NNW,338,0.7,1.3,60,0.00,,,0.00,WUHU216HW,2013-09-06 08:47:00,
2013-09-06 04:52:00,62.8,48.8,30.15,SW,225,0.2,0.9,60,0.00,,,0.00,WUHU216HW,2013-09-06 08:52:00,
2013-09-06 04:57:00,62.5,48.4,30.16,South,180,0.7,0.7,60,0.00,,,0.00,WUHU216HW,2013-09-06 08:57:00,
2013-09-06 05:02:00,62.3,48.2,30.16,ESE,113,0.4,0.7,60,0.00,,,0.00,WUHU216HW,2013-09-06 09:02:00,
2013-09-06 05:07:00,62.3,48.2,30.16,SW,225,0.0,0.4,60,0.00,,,0.00,WUHU216HW,2013-09-06 09:07:00,
2013-09-06 05:12:00,62.1,48.5,30.16,SSW,203,1.1,1.1,61,0.00,,,0.00,WUHU216HW,2013-09-06 09:12:00,
2013-09-06 05:18:00,62.1,48.5,30.16,SSW,203,1.1,1.1,61,0.00,,,0.00,WUHU216HW,2013-09-06 09:18:00,
2013-09-06 05:23:00,61.9,48.3,30.16,NE,45,0.2,1.1,61,0.00,,,0.00,WUHU216HW,2013-09-06 09:23:00,
2013-09-06 05:28:00,61.9,48.3,30.16,SSW,203,0.4,1.1,61,0.00,,,0.00,WUHU216HW,2013-09-06 09:28:00,
2013-09-06 05:32:00,61.6,48.1,30.17,SE,135,1.1,1.1,61,0.00,,,0.00,WUHU216HW,2013-09-06 09:32:00,
2013-09-06 05:33:00,61.6,48.1,30.17,SE,135,1.1,1.1,61,0.00,,,0.00,WUHU216HW,2013-09-06 09:33:00,
2013-09-06 05:38:00,61.6,48.1,30.17,SE,135,1.1,1.1,61,0.00,,,0.00,WUHU216HW,2013-09-06 09:38:00,
2013-09-06 06:00:00,61.0,48.4,30.17,SSE,158,1.3,1.3,63,0.00,,,0.00,WUHU216HW,2013-09-06 10:00:00,
2013-09-06 06:05:00,61.0,48.4,30.18,SSW,203,0.0,1.3,63,0.00,,,0.00,WUHU216HW,2013-09-06 10:05:00,
2013-09-06 06:10:00,60.8,48.3,30.18,SW,225,0.0,1.3,63,0.00,,,0.00,WUHU216HW,2013-09-06 10:10:00,
2013-09-06 06:15:00,60.7,48.4,30.18,WNW,293,1.1,1.1,64,0.00,,,0.00,WUHU216HW,2013-09-06 10:15:00,
2013-09-06 06:20:00,60.7,48.4,30.18,SSW,203,0.4,1.3,64,0.00,,,0.00,WUHU216HW,2013-09-06 10:20:00,
2013-09-06 06:25:00,60.5,48.2,30.18,South,180,0.7,1.3,64,0.00,,,0.00,WUHU216HW,2013-09-06 10:25:00,
2013-09-06 06:30:00,60.5,48.2,30.18,ENE,68,0.4,0.7,64,0.00,,,0.00,WUHU216HW,2013-09-06 10:30:00,
2013-09-06 06:35:00,60.3,48.1,30.18,SSE,158,0.0,0.9,64,0.00,,,0.00,WUHU216HW,2013-09-06 10:35:00,
2013-09-06 06:40:00,60.3,48.1,30.19,SW,225,0.0,0.9,64,0.00,,,0.00,WUHU216HW,2013-09-06 10:40:00,
2013-09-06 06:45:00,60.1,47.9,30.19,South,180,0.0,0.4,64,0.00,,,0.00,WUHU216HW,2013-09-06 10:45:00,
2013-09-06 06:51:00,60.1,47.1,30.19,South,180,0.0,0.0,62,0.00,,,0.00,WUHU216HW,2013-09-06 10:51:00,
2013-09-06 06:56:00,60.1,47.1,30.19,South,180,0.0,0.0,62,0.00,,,0.00,WUHU216HW,2013-09-06 10:56:00,
2013-09-06 07:01:00,59.9,47.4,30.20,South,180,0.0,0.0,63,0.00,,,0.00,WUHU216HW,2013-09-06 11:01:00,
2013-09-06 07:06:00,59.8,47.2,30.20,SE,135,0.0,1.1,63,0.00,,,0.00,WUHU216HW,2013-09-06 11:06:00,
2013-09-06 07:11:00,59.6,47.0,30.20,South,180,1.8,1.8,63,0.00,,,0.00,WUHU216HW,2013-09-06 11:11:00,
2013-09-06 07:16:00,59.6,47.0,30.20,ESE,113,0.0,1.8,63,0.00,,,0.00,WUHU216HW,2013-09-06 11:16:00,
2013-09-06 07:21:00,59.6,47.0,30.21,South,180,0.2,0.4,63,0.00,,,0.00,WUHU216HW,2013-09-06 11:21:00,
2013-09-06 07:26:00,59.6,47.0,30.21,ESE,113,0.0,0.7,63,0.00,,,0.00,WUHU216HW,2013-09-06 11:26:00,
2013-09-06 07:31:00,59.4,46.4,30.21,South,180,0.9,0.9,62,0.00,,,0.00,WUHU216HW,2013-09-06 11:31:00,
2013-09-06 07:36:00,59.4,46.4,30.22,SW,225,0.4,0.9,62,0.00,,,0.00,WUHU216HW,2013-09-06 11:36:00,
2013-09-06 07:41:00,59.6,46.5,30.22,East,90,0.0,1.6,62,0.00,,,0.00,WUHU216HW,2013-09-06 11:41:00,
2013-09-06 07:46:00,59.6,46.5,30.22,SSE,158,0.4,1.6,62,0.00,,,0.00,WUHU216HW,2013-09-06 11:46:00,
2013-09-06 07:51:00,59.9,46.9,30.22,SSW,203,1.8,1.8,62,0.00,,,0.00,WUHU216HW,2013-09-06 11:51:00,
2013-09-06 07:56:00,59.9,46.9,30.22,SE,135,0.4,1.8,62,0.00,,,0.00,WUHU216HW,2013-09-06 11:56:00,
2013-09-06 08:02:00,60.1,47.1,30.22,South,180,1.8,1.8,62,0.00,,,0.00,WUHU216HW,2013-09-06 12:02:00,
2013-09-06 08:07:00,60.1,46.7,30.22,ENE,68,0.2,1.8,61,0.00,,,0.00,WUHU216HW,2013-09-06 12:07:00,
2013-09-06 08:12:00,60.5,46.6,30.22,SSE,158,1.1,1.6,60,0.00,,,0.00,WUHU216HW,2013-09-06 12:12:00,
2013-09-06 08:17:00,60.8,47.0,30.23,SW,225,0.0,1.6,60,0.00,,,0.00,WUHU216HW,2013-09-06 12:17:00,
2013-09-06 08:22:00,61.0,47.2,30.23,SSW,203,1.8,1.8,60,0.00,,,0.00,WUHU216HW,2013-09-06 12:22:00,
2013-09-06 08:27:00,61.9,47.0,30.23,SSE,158,1.8,1.8,58,0.00,,,0.00,WUHU216HW,2013-09-06 12:27:00,
2013-09-06 08:32:00,62.3,46.4,30.23,SW,225,1.1,1.8,56,0.00,,,0.00,WUHU216HW,2013-09-06 12:32:00,
2013-09-06 08:37:00,63.0,47.4,30.23,SSW,203,0.0,1.8,57,0.00,,,0.00,WUHU216HW,2013-09-06 12:37:00,
2013-09-06 08:42:00,64.4,46.8,30.23,WSW,248,2.7,2.7,53,0.00,,,0.00,WUHU216HW,2013-09-06 12:42:00,
2013-09-06 08:47:00,64.6,46.5,30.23,SW,225,1.8,2.7,52,0.00,,,0.00,WUHU216HW,2013-09-06 12:47:00,
2013-09-06 08:52:00,64.3,46.2,30.23,SSW,203,0.9,2.5,52,0.00,,,0.00,WUHU216HW,2013-09-06 12:52:00,
2013-09-06 08:57:00,64.1,46.0,30.23,NNE,23,0.0,1.8,52,0.00,,,0.00,WUHU216HW,2013-09-06 12:57:00,
2013-09-06 09:02:00,64.4,46.4,30.23,SW,225,1.3,1.8,52,0.00,,,0.00,WUHU216HW,2013-09-06 13:02:00,
2013-09-06 09:07:00,65.7,47.6,30.23,SSW,203,0.7,1.8,52,0.00,,,0.00,WUHU216HW,2013-09-06 13:07:00,
2013-09-06 09:13:00,66.8,48.2,30.23,ENE,68,0.9,1.3,51,0.00,,,0.00,WUHU216HW,2013-09-06 13:13:00,
2013-09-06 09:18:00,67.7,47.9,30.23,ESE,113,2.2,2.2,49,0.00,,,0.00,WUHU216HW,2013-09-06 13:18:00,
2013-09-06 09:23:00,67.9,48.1,30.23,SW,225,1.1,2.5,49,0.00,,,0.00,WUHU216HW,2013-09-06 13:23:00,
2013-09-06 09:28:00,68.2,46.5,30.23,SE,135,0.9,2.5,46,0.00,,,0.00,WUHU216HW,2013-09-06 13:28:00,
2013-09-06 09:33:00,68.4,47.4,30.23,SSW,203,1.1,2.2,47,0.00,,,0.00,WUHU216HW,2013-09-06 13:33:00,
2013-09-06 09:38:00,68.9,47.8,30.23,SSW,203,1.1,2.9,47,0.00,,,0.00,WUHU216HW,2013-09-06 13:38:00,
2013-09-06 09:43:00,68.8,47.6,30.23,South,180,2.2,2.9,47,0.00,,,0.00,WUHU216HW,2013-09-06 13:43:00,
2013-09-06 09:48:00,68.9,47.8,30.23,ESE,113,0.4,2.2,47,0.00,,,0.00,WUHU216HW,2013-09-06 13:48:00,
2013-09-06 09:53:00,69.3,48.2,30.23,ENE,68,0.7,1.6,47,0.00,,,0.00,WUHU216HW,2013-09-06 13:53:00,
2013-09-06 09:58:00,69.8,48.1,30.23,SSW,203,1.1,1.1,46,0.00,,,0.00,WUHU216HW,2013-09-06 13:58:00,
2013-09-06 10:03:00,70.2,48.3,30.24,SSE,158,1.1,2.0,46,0.00,,,0.00,WUHU216HW,2013-09-06 14:03:00,
2013-09-06 10:08:00,70.2,47.8,30.23,South,180,1.1,2.2,45,0.00,,,0.00,WUHU216HW,2013-09-06 14:08:00,
2013-09-06 10:14:00,70.0,47.6,30.23,SSE,158,0.7,2.2,45,0.00,,,0.00,WUHU216HW,2013-09-06 14:14:00,
2013-09-06 10:19:00,70.4,48.5,30.23,SSW,203,0.0,1.8,46,0.00,,,0.00,WUHU216HW,2013-09-06 14:19:00,
2013-09-06 10:24:00,70.9,47.8,30.23,NW,315,1.6,1.8,44,0.00,,,0.00,WUHU216HW,2013-09-06 14:24:00,
2013-09-06 10:29:00,71.5,48.3,30.23,SW,225,1.3,1.6,44,0.00,,,0.00,WUHU216HW,2013-09-06 14:29:00,
2013-09-06 10:34:00,71.8,47.4,30.23,WSW,248,1.8,1.8,42,0.00,,,0.00,WUHU216HW,2013-09-06 14:34:00,
2013-09-06 10:39:00,72.4,47.9,30.23,SSW,203,1.1,1.8,42,0.00,,,0.00,WUHU216HW,2013-09-06 14:39:00,
2013-09-06 10:44:00,72.4,47.9,30.23,SSW,203,0.7,1.1,42,0.00,,,0.00,WUHU216HW,2013-09-06 14:44:00,
2013-09-06 10:49:00,72.7,48.2,30.23,SSW,203,0.9,1.6,42,0.00,,,0.00,WUHU216HW,2013-09-06 14:49:00,
2013-09-06 10:54:00,72.7,48.2,30.23,SSE,158,0.2,1.6,42,0.00,,,0.00,WUHU216HW,2013-09-06 14:54:00,
2013-09-06 10:59:00,72.5,48.1,30.23,NNE,23,0.0,1.8,42,0.00,,,0.00,WUHU216HW,2013-09-06 14:59:00,
2013-09-06 11:04:00,72.9,48.4,30.23,SW,225,2.5,2.5,42,0.00,,,0.00,WUHU216HW,2013-09-06 15:04:00,
2013-09-06 11:09:00,73.4,48.9,30.23,SSE,158,0.7,2.5,42,0.00,,,0.00,WUHU216HW,2013-09-06 15:09:00,
2013-09-06 11:14:00,73.8,47.3,30.23,SW,225,2.7,2.7,39,0.00,,,0.00,WUHU216HW,2013-09-06 15:14:00,
2013-09-06 11:19:00,74.0,48.8,30.23,SSE,158,0.7,2.7,41,0.00,,,0.00,WUHU216HW,2013-09-06 15:19:00,
2013-09-06 11:25:00,74.2,48.3,30.23,SSW,203,0.9,2.5,40,0.00,,,0.00,WUHU216HW,2013-09-06 15:25:00,
2013-09-06 11:30:00,73.8,48.1,30.23,SW,225,0.9,1.1,40,0.00,,,0.00,WUHU216HW,2013-09-06 15:30:00,
2013-09-06 11:35:00,73.8,48.6,30.23,SW,225,1.8,1.8,41,0.00,,,0.00,WUHU216HW,2013-09-06 15:35:00,
2013-09-06 11:40:00,74.2,49.0,30.23,SE,135,0.0,1.8,41,0.00,,,0.00,WUHU216HW,2013-09-06 15:40:00,
2013-09-06 11:45:00,73.8,48.1,30.23,SSE,158,1.1,1.8,40,0.00,,,0.00,WUHU216HW,2013-09-06 15:45:00,
2013-09-06 11:50:00,73.6,48.4,30.23,SSE,158,0.9,1.1,41,0.00,,,0.00,WUHU216HW,2013-09-06 15:50:00,
2013-09-06 11:55:00,73.8,48.1,30.22,SSW,203,0.2,2.5,40,0.00,,,0.00,WUHU216HW,2013-09-06 15:55:00,
2013-09-06 12:00:00,74.0,48.8,30.22,SE,135,1.3,2.5,41,0.00,,,0.00,WUHU216HW,2013-09-06 16:00:00,
2013-09-06 12:05:00,74.2,49.0,30.22,South,180,2.0,2.0,41,0.00,,,0.00,WUHU216HW,2013-09-06 16:05:00,
2013-09-06 12:10:00,74.0,48.8,30.22,ESE,113,0.4,2.0,41,0.00,,,0.00,WUHU216HW,2013-09-06 16:10:00,
2013-09-06 12:15:00,74.2,49.0,30.21,South,180,0.4,2.0,41,0.00,,,0.00,WUHU216HW,2013-09-06 16:15:00,
2013-09-06 12:20:00,74.0,48.8,30.21,NNE,23,2.9,2.9,41,0.00,,,0.00,WUHU216HW,2013-09-06 16:20:00,
2013-09-06 12:25:00,73.4,48.3,30.21,SSW,203,1.3,2.9,41,0.00,,,0.00,WUHU216HW,2013-09-06 16:25:00,
2013-09-06 12:31:00,73.8,48.6,30.21,ESE,113,2.0,2.0,41,0.00,,,0.00,WUHU216HW,2013-09-06 16:31:00,
2013-09-06 12:36:00,73.8,49.2,30.21,ESE,113,1.8,2.0,42,0.00,,,0.00,WUHU216HW,2013-09-06 16:36:00,
2013-09-06 12:41:00,73.8,49.2,30.21,ESE,113,2.2,2.7,42,0.00,,,0.00,WUHU216HW,2013-09-06 16:41:00,
2013-09-06 12:46:00,74.2,49.6,30.21,SSW,203,0.9,2.7,42,0.00,,,0.00,WUHU216HW,2013-09-06 16:46:00,
2013-09-06 12:51:00,75.2,50.6,30.20,NE,45,0.7,1.3,42,0.00,,,0.00,WUHU216HW,2013-09-06 16:51:00,
2013-09-06 12:56:00,75.2,50.0,30.20,WSW,248,0.4,0.9,41,0.00,,,0.00,WUHU216HW,2013-09-06 16:56:00,
2013-09-06 13:01:00,75.2,50.0,30.20,NE,45,1.1,1.3,41,0.00,,,0.00,WUHU216HW,2013-09-06 17:01:00,
2013-09-06 13:06:00,75.2,50.0,30.20,South,180,1.1,1.8,41,0.00,,,0.00,WUHU216HW,2013-09-06 17:06:00,
2013-09-06 13:11:00,75.2,50.0,30.20,SSW,203,1.8,1.8,41,0.00,,,0.00,WUHU216HW,2013-09-06 17:11:00,
2013-09-06 13:16:00,75.2,50.0,30.20,ESE,113,1.1,1.8,41,0.00,,,0.00,WUHU216HW,2013-09-06 17:16:00,
2013-09-06 13:21:00,75.6,50.2,30.20,NW,315,0.2,1.1,41,0.00,,,0.00,WUHU216HW,2013-09-06 17:21:00,
2013-09-06 13:26:00,76.0,50.6,30.20,ENE,68,0.4,0.4,41,0.00,,,0.00,WUHU216HW,2013-09-06 17:26:00,
2013-09-06 13:31:00,76.1,50.8,30.19,North,0,1.8,1.8,41,0.00,,,0.00,WUHU216HW,2013-09-06 17:31:00,
2013-09-06 13:36:00,76.0,50.0,30.19,North,0,0.4,1.8,40,0.00,,,0.00,WUHU216HW,2013-09-06 17:36:00,
2013-09-06 13:42:00,76.1,50.8,30.19,NNW,338,1.1,1.8,41,0.00,,,0.00,WUHU216HW,2013-09-06 17:42:00,
2013-09-06 13:47:00,76.5,51.0,30.18,North,0,3.1,3.1,41,0.00,,,0.00,WUHU216HW,2013-09-06 17:47:00,
2013-09-06 13:52:00,76.7,50.6,30.18,SSE,158,4.0,4.0,40,0.00,,,0.00,WUHU216HW,2013-09-06 17:52:00,
2013-09-06 13:57:00,76.3,50.3,30.18,NW,315,1.1,4.0,40,0.00,,,0.00,WUHU216HW,2013-09-06 17:57:00,
2013-09-06 14:02:00,76.3,49.5,30.17,WSW,248,1.3,4.0,39,0.00,,,0.00,WUHU216HW,2013-09-06 18:02:00,
2013-09-06 14:04:00,76.3,49.5,30.17,SSW,203,2.5,2.5,39,0.00,,,0.00,WUHU216HW,2013-09-06 18:04:00,
2013-09-06 14:07:00,76.3,49.5,30.17,SSW,203,2.5,2.5,39,0.00,,,0.00,WUHU216HW,2013-09-06 18:07:00,
2013-09-06 14:12:00,76.3,49.5,30.17,SSW,203,2.5,2.5,39,0.00,,,0.00,WUHU216HW,2013-09-06 18:12:00,
2013-09-06 14:34:00,76.7,49.9,30.16,SSE,158,0.7,0.7,39,0.00,,,0.00,WUHU216HW,2013-09-06 18:34:00,
2013-09-06 14:39:00,76.7,49.9,30.16,South,180,1.1,1.1,39,0.00,,,0.00,WUHU216HW,2013-09-06 18:39:00,
2013-09-06 14:44:00,76.3,49.5,30.16,ENE,68,0.7,1.8,39,0.00,,,0.00,WUHU216HW,2013-09-06 18:44:00,
2013-09-06 14:49:00,76.7,49.9,30.15,WSW,248,0.4,1.8,39,0.00,,,0.00,WUHU216HW,2013-09-06 18:49:00,
2013-09-06 14:54:00,76.7,50.6,30.15,West,270,0.2,1.3,40,0.00,,,0.00,WUHU216HW,2013-09-06 18:54:00,
2013-09-06 14:59:00,76.7,49.9,30.15,SW,225,0.0,2.5,39,0.00,,,0.00,WUHU216HW,2013-09-06 18:59:00,
2013-09-06 15:04:00,76.7,50.6,30.15,NNW,338,2.0,2.5,40,0.00,,,0.00,WUHU216HW,2013-09-06 19:04:00,
2013-09-06 15:09:00,77.0,50.2,30.14,NNW,338,0.9,2.0,39,0.00,,,0.00,WUHU216HW,2013-09-06 19:09:00,
2013-09-06 15:15:00,77.6,51.4,30.14,NNW,338,0.4,2.0,40,0.00,,,0.00,WUHU216HW,2013-09-06 19:15:00,
2013-09-06 15:20:00,78.1,51.1,30.14,West,270,1.3,1.3,39,0.00,,,0.00,WUHU216HW,2013-09-06 19:20:00,
2013-09-06 15:25:00,78.3,51.3,30.13,NE,45,1.1,1.6,39,0.00,,,0.00,WUHU216HW,2013-09-06 19:25:00,
2013-09-06 15:30:00,78.5,50.7,30.13,West,270,2.0,2.0,38,0.00,,,0.00,WUHU216HW,2013-09-06 19:30:00,
2013-09-06 15:35:00,78.7,50.9,30.13,SSW,203,0.7,2.0,38,0.00,,,0.00,WUHU216HW,2013-09-06 19:35:00,
2013-09-06 15:40:00,78.8,51.0,30.12,West,270,1.3,1.3,38,0.00,,,0.00,WUHU216HW,2013-09-06 19:40:00,
2013-09-06 15:45:00,79.4,52.3,30.13,NNW,338,1.1,2.5,39,0.00,,,0.00,WUHU216HW,2013-09-06 19:45:00,
2013-09-06 15:50:00,79.9,52.0,30.13,SW,225,1.8,2.5,38,0.00,,,0.00,WUHU216HW,2013-09-06 19:50:00,
2013-09-06 15:55:00,79.9,49.7,30.12,WNW,293,0.7,1.8,35,0.00,,,0.00,WUHU216HW,2013-09-06 19:55:00,
2013-09-06 16:00:00,80.8,53.6,30.12,NW,315,0.4,1.8,39,0.00,,,0.00,WUHU216HW,2013-09-06 20:00:00,
2013-09-06 16:05:00,81.0,52.2,30.12,NW,315,0.0,0.4,37,0.00,,,0.00,WUHU216HW,2013-09-06 20:05:00,
2013-09-06 16:10:00,81.2,52.3,30.12,NNW,338,0.4,0.4,37,0.00,,,0.00,WUHU216HW,2013-09-06 20:10:00,
2013-09-06 16:15:00,81.2,51.6,30.12,NNW,338,1.8,1.8,36,0.00,,,0.00,WUHU216HW,2013-09-06 20:15:00,
2013-09-06 16:20:00,81.2,52.3,30.12,NW,315,1.8,1.8,37,0.00,,,0.00,WUHU216HW,2013-09-06 20:20:00,
2013-09-06 16:26:00,80.8,52.0,30.12,NW,315,0.7,1.8,37,0.00,,,0.00,WUHU216HW,2013-09-06 20:26:00,
2013-09-06 16:31:00,80.6,51.8,30.12,North,0,0.4,3.1,37,0.00,,,0.00,WUHU216HW,2013-09-06 20:31:00,
2013-09-06 16:36:00,79.4,49.1,30.12,SSE,158,0.4,3.1,35,0.00,,,0.00,WUHU216HW,2013-09-06 20:36:00,
2013-09-06 16:41:00,78.7,50.0,30.11,SW,225,0.4,2.7,37,0.00,,,0.00,WUHU216HW,2013-09-06 20:41:00,
2013-09-06 16:46:00,79.0,49.6,30.11,SW,225,3.6,3.6,36,0.00,,,0.00,WUHU216HW,2013-09-06 20:46:00,
2013-09-06 16:51:00,78.7,50.0,30.11,SW,225,0.9,3.6,37,0.00,,,0.00,WUHU216HW,2013-09-06 20:51:00,
2013-09-06 16:56:00,78.8,51.0,30.11,WNW,293,0.0,3.6,38,0.00,,,0.00,WUHU216HW,2013-09-06 20:56:00,
2013-09-06 17:01:00,79.2,51.3,30.11,NW,315,0.9,1.3,38,0.00,,,0.00,WUHU216HW,2013-09-06 21:01:00,
2013-09-06 17:06:00,79.0,51.2,30.11,WSW,248,0.4,1.3,38,0.00,,,0.00,WUHU216HW,2013-09-06 21:06:00,
2013-09-06 17:11:00,78.3,50.6,30.11,NE,45,0.7,1.3,38,0.00,,,0.00,WUHU216HW,2013-09-06 21:11:00,
2013-09-06 17:16:00,78.1,51.1,30.11,NE,45,0.9,1.1,39,0.00,,,0.00,WUHU216HW,2013-09-06 21:16:00,
2013-09-06 17:21:00,78.1,51.1,30.11,NNW,338,0.4,1.1,39,0.00,,,0.00,WUHU216HW,2013-09-06 21:21:00,
2013-09-06 17:26:00,77.9,51.0,30.11,SW,225,0.0,1.1,39,0.00,,,0.00,WUHU216HW,2013-09-06 21:26:00,
2013-09-06 17:32:00,77.8,50.9,30.11,West,270,0.0,0.7,39,0.00,,,0.00,WUHU216HW,2013-09-06 21:32:00,
2013-09-06 17:37:00,77.8,51.6,30.11,NNW,338,0.0,0.7,40,0.00,,,0.00,WUHU216HW,2013-09-06 21:37:00,
2013-09-06 17:42:00,77.6,51.4,30.11,NNW,338,1.3,1.3,40,0.00,,,0.00,WUHU216HW,2013-09-06 21:42:00,
2013-09-06 17:47:00,77.6,51.4,30.11,NNW,338,0.4,1.3,40,0.00,,,0.00,WUHU216HW,2013-09-06 21:47:00,
2013-09-06 17:52:00,77.4,51.3,30.11,NNW,338,0.0,0.4,40,0.00,,,0.00,WUHU216HW,2013-09-06 21:52:00,
2013-09-06 17:57:00,77.0,50.9,30.11,North,0,0.9,0.9,40,0.00,,,0.00,WUHU216HW,2013-09-06 21:57:00,
2013-09-06 18:02:00,76.7,51.2,30.10,North,0,0.0,1.8,41,0.00,,,0.00,WUHU216HW,2013-09-06 22:02:00,
2013-09-06 18:07:00,76.7,51.2,30.11,North,0,0.0,1.8,41,0.00,,,0.00,WUHU216HW,2013-09-06 22:07:00,
2013-09-06 18:12:00,76.5,51.0,30.11,ENE,68,0.4,2.0,41,0.00,,,0.00,WUHU216HW,2013-09-06 22:12:00,
2013-09-06 18:17:00,76.1,50.8,30.10,WSW,248,0.0,2.0,41,0.00,,,0.00,WUHU216HW,2013-09-06 22:17:00,
2013-09-06 18:22:00,76.1,51.4,30.10,West,270,0.0,0.0,42,0.00,,,0.00,WUHU216HW,2013-09-06 22:22:00,
2013-09-06 18:27:00,75.6,50.9,30.10,NW,315,0.0,0.4,42,0.00,,,0.00,WUHU216HW,2013-09-06 22:27:00,
2013-09-06 18:32:00,75.2,50.6,30.10,WSW,248,0.7,0.7,42,0.00,,,0.00,WUHU216HW,2013-09-06 22:32:00,
2013-09-06 18:38:00,74.9,50.2,30.10,SW,225,0.0,1.1,42,0.00,,,0.00,WUHU216HW,2013-09-06 22:38:00,
2013-09-06 18:43:00,74.7,50.7,30.10,SW,225,0.0,1.1,43,0.00,,,0.00,WUHU216HW,2013-09-06 22:43:00,
2013-09-06 18:48:00,74.5,50.5,30.10,SSW,203,0.0,0.2,43,0.00,,,0.00,WUHU216HW,2013-09-06 22:48:00,
2013-09-06 18:53:00,74.3,51.0,30.10,SSW,203,0.0,0.2,44,0.00,,,0.00,WUHU216HW,2013-09-06 22:53:00,
2013-09-06 18:58:00,73.8,50.4,30.10,SSW,203,0.0,0.0,44,0.00,,,0.00,WUHU216HW,2013-09-06 22:58:00,
2013-09-06 19:03:00,73.4,50.7,30.10,South,180,0.0,0.0,45,0.00,,,0.00,WUHU216HW,2013-09-06 23:03:00,
2013-09-06 19:08:00,73.1,50.3,30.10,South,180,0.0,0.0,45,0.00,,,0.00,WUHU216HW,2013-09-06 23:08:00,
2013-09-06 19:13:00,72.5,49.9,30.10,SW,225,0.0,0.4,45,0.00,,,0.00,WUHU216HW,2013-09-06 23:13:00,
2013-09-06 19:18:00,72.2,49.5,30.10,SW,225,0.0,0.4,45,0.00,,,0.00,WUHU216HW,2013-09-06 23:18:00,
2013-09-06 19:23:00,71.8,49.8,30.10,WSW,248,0.0,0.0,46,0.00,,,0.00,WUHU216HW,2013-09-06 23:23:00,
2013-09-06 19:28:00,71.5,49.5,30.10,West,270,0.0,0.0,46,0.00,,,0.00,WUHU216HW,2013-09-06 23:28:00,
2013-09-06 19:33:00,71.1,49.8,30.11,WNW,293,0.0,0.0,47,0.00,,,0.00,WUHU216HW,2013-09-06 23:33:00,
2013-09-06 19:39:00,70.9,49.6,30.10,NW,315,0.0,0.0,47,0.00,,,0.00,WUHU216HW,2013-09-06 23:39:00,
2013-09-06 19:44:00,70.4,49.7,30.10,North,0,0.0,0.0,48,0.00,,,0.00,WUHU216HW,2013-09-06 23:44:00,
2013-09-06 19:49:00,70.0,49.4,30.10,North,0,0.0,0.0,48,0.00,,,0.00,WUHU216HW,2013-09-06 23:49:00,
2013-09-06 19:54:00,69.7,49.1,30.10,North,0,0.0,0.0,48,0.00,,,0.00,WUHU216HW,2013-09-06 23:54:00,
2013-09-06 19:59:00,69.3,48.7,30.10,East,90,0.2,0.2,48,0.00,,,0.00,WUHU216HW,2013-09-06 23:59:00,
2013-09-06 20:04:00,69.1,48.6,30.10,NNE,23,0.2,0.2,48,0.00,,,0.00,WUHU216HW,2013-09-07 00:04:00,
2013-09-06 20:09:00,68.9,49.6,30.11,North,0,0.0,0.2,50,0.00,,,0.00,WUHU216HW,2013-09-07 00:09:00,
2013-09-06 20:14:00,68.9,50.1,30.11,SW,225,0.2,0.4,51,0.00,,,0.00,WUHU216HW,2013-09-07 00:14:00,
2013-09-06 20:19:00,68.8,50.4,30.12,SW,225,0.0,0.4,52,0.00,,,0.00,WUHU216HW,2013-09-07 00:19:00,
2013-09-06 20:24:00,68.8,51.0,30.12,SW,225,0.0,0.2,53,0.00,,,0.00,WUHU216HW,2013-09-07 00:24:00,
2013-09-06 20:29:00,68.6,51.2,30.12,SW,225,0.0,0.0,54,0.00,,,0.00,WUHU216HW,2013-09-07 00:29:00,
2013-09-06 20:35:00,68.4,51.6,30.12,WSW,248,0.0,0.4,55,0.00,,,0.00,WUHU216HW,2013-09-07 00:35:00,
2013-09-06 20:40:00,68.2,51.8,30.12,SW,225,0.0,0.7,56,0.00,,,0.00,WUHU216HW,2013-09-07 00:40:00,
2013-09-06 20:45:00,68.2,51.8,30.12,SW,225,0.0,0.7,56,0.00,,,0.00,WUHU216HW,2013-09-07 00:45:00,
2013-09-06 20:50:00,68.2,51.8,30.12,SW,225,0.0,0.0,56,0.00,,,0.00,WUHU216HW,2013-09-07 00:50:00,
2013-09-06 21:00:00,67.7,51.4,30.12,West,270,0.0,0.0,56,0.00,,,0.00,WUHU216HW,2013-09-07 01:00:00,
2013-09-06 21:05:00,67.7,51.8,30.12,West,270,0.0,0.0,57,0.00,,,0.00,WUHU216HW,2013-09-07 01:05:00,
2013-09-06 21:10:00,67.3,51.6,30.12,West,270,0.0,0.0,57,0.00,,,0.00,WUHU216HW,2013-09-07 01:10:00,
2013-09-06 21:15:00,67.1,51.4,30.13,West,270,0.0,0.0,57,0.00,,,0.00,WUHU216HW,2013-09-07 01:15:00,
2013-09-06 21:20:00,66.8,51.0,30.12,West,270,0.0,0.0,57,0.00,,,0.00,WUHU216HW,2013-09-07 01:20:00,
2013-09-06 21:25:00,66.6,51.4,30.13,West,270,0.0,0.0,58,0.00,,,0.00,WUHU216HW,2013-09-07 01:25:00,
2013-09-06 21:30:00,66.2,51.6,30.12,WSW,248,0.0,0.0,59,0.00,,,0.00,WUHU216HW,2013-09-07 01:30:00,
2013-09-06 21:36:00,66.2,51.6,30.12,WSW,248,0.0,0.0,59,0.00,,,0.00,WUHU216HW,2013-09-07 01:36:00,
2013-09-06 21:41:00,66.2,51.6,30.12,WSW,248,0.0,0.0,59,0.00,,,0.00,WUHU216HW,2013-09-07 01:41:00,
2013-09-06 21:46:00,65.9,51.2,30.12,WSW,248,0.0,0.0,59,0.00,,,0.00,WUHU216HW,2013-09-07 01:46:00,
2013-09-06 21:51:00,65.7,51.0,30.13,WSW,248,0.0,0.0,59,0.00,,,0.00,WUHU216HW,2013-09-07 01:51:00,
2013-09-06 21:56:00,65.5,51.3,30.12,WSW,248,0.0,0.0,60,0.00,,,0.00,WUHU216HW,2013-09-07 01:56:00,
2013-09-06 22:01:00,65.3,51.1,30.13,West,270,0.0,0.0,60,0.00,,,0.00,WUHU216HW,2013-09-07 02:01:00,
2013-09-06 22:06:00,65.2,50.9,30.13,West,270,0.0,0.0,60,0.00,,,0.00,WUHU216HW,2013-09-07 02:06:00,
2013-09-06 22:11:00,65.2,50.9,30.13,WNW,293,0.0,0.0,60,0.00,,,0.00,WUHU216HW,2013-09-07 02:11:00,
2013-09-06 22:16:00,65.0,50.8,30.13,WNW,293,0.0,0.0,60,0.00,,,0.00,WUHU216HW,2013-09-07 02:16:00,
2013-09-06 22:21:00,64.8,51.0,30.13,WNW,293,0.0,0.0,61,0.00,,,0.00,WUHU216HW,2013-09-07 02:21:00,
2013-09-06 22:26:00,64.6,50.9,30.13,WNW,293,0.0,0.0,61,0.00,,,0.00,WUHU216HW,2013-09-07 02:26:00,
2013-09-06 22:32:00,64.3,51.0,30.12,WNW,293,0.0,0.0,62,0.00,,,0.00,WUHU216HW,2013-09-07 02:32:00,
2013-09-06 22:37:00,64.3,51.0,30.12,WNW,293,0.0,0.0,62,0.00,,,0.00,WUHU216HW,2013-09-07 02:37:00,
2013-09-06 22:42:00,64.3,51.0,30.12,WNW,293,0.0,0.0,62,0.00,,,0.00,WUHU216HW,2013-09-07 02:42:00,
2013-09-06 22:47:00,64.1,51.2,30.12,WNW,293,0.0,0.0,63,0.00,,,0.00,WUHU216HW,2013-09-07 02:47:00,
2013-09-06 22:52:00,63.9,51.0,30.12,NW,315,0.0,0.0,63,0.00,,,0.00,WUHU216HW,2013-09-07 02:52:00,
2013-09-06 22:57:00,63.7,50.9,30.12,NNW,338,0.0,0.0,63,0.00,,,0.00,WUHU216HW,2013-09-07 02:57:00,
2013-09-06 23:02:00,63.5,51.1,30.12,NNW,338,0.0,0.0,64,0.00,,,0.00,WUHU216HW,2013-09-07 03:02:00,
2013-09-06 23:07:00,63.4,51.0,30.11,NNW,338,0.0,0.0,64,0.00,,,0.00,WUHU216HW,2013-09-07 03:07:00,
2013-09-06 23:12:00,63.4,51.0,30.12,NNW,338,0.0,0.0,64,0.00,,,0.00,WUHU216HW,2013-09-07 03:12:00,
2013-09-06 23:17:00,63.0,51.0,30.12,NNW,338,0.0,0.0,65,0.00,,,0.00,WUHU216HW,2013-09-07 03:17:00,
2013-09-06 23:23:00,63.0,51.0,30.12,NNW,338,0.0,0.0,65,0.00,,,0.00,WUHU216HW,2013-09-07 03:23:00,
2013-09-06 23:28:00,62.8,50.9,30.12,NNW,338,0.0,0.0,65,0.00,,,0.00,WUHU216HW,2013-09-07 03:28:00,
2013-09-06 23:33:00,62.6,50.7,30.12,NNW,338,0.0,0.0,65,0.00,,,0.00,WUHU216HW,2013-09-07 03:33:00,
2013-09-06 23:38:00,62.3,50.3,30.12,NNW,338,0.0,0.0,65,0.00,,,0.00,WUHU216HW,2013-09-07 03:38:00,
2013-09-06 23:43:00,62.3,50.8,30.12,NNW,338,0.0,0.0,66,0.00,,,0.00,WUHU216HW,2013-09-07 03:43:00,
2013-09-06 23:48:00,62.1,50.6,30.12,NNW,338,0.0,0.0,66,0.00,,,0.00,WUHU216HW,2013-09-07 03:48:00,
2013-09-06 23:53:00,62.1,50.6,30.12,NNW,338,0.0,0.0,66,0.00,,,0.00,WUHU216HW,2013-09-07 03:53:00,
2013-09-06 23:58:00,61.9,50.4,30.12,NNW,338,0.0,0.0,66,0.00,,,0.00,WUHU216HW,2013-09-07 03:58:00,